Terminal Aerodrome Forecast
Issued by NWS

Home | Current Version | Previous Version | Text Only | Print | Product List | Glossary On
Versions: 1 2 3 4 5 6 7 8 9 10 11 12
759
FTUS43 KMQT 251720
TAFCMX
TAF
KCMX 251720Z 2518/2618 31007KT P6SM FEW250
     FM260100 22003KT P6SM FEW250
     FM261600 26010KT P6SM BKN200=

USA.gov is the U.S. government's official web portal to all federal, state and local government web resources and services.